sensor_id;sensor_type;location;lat;lon;timestamp;P1;durP1;ratioP1;P2;durP2;ratioP2
55170;SDS011;41060;47.510;8.680;2023-04-16T00:02:01;1.80;;;1.20;;
55170;SDS011;41060;47.510;8.680;2023-04-16T00:04:27;1.30;;;1.13;;
55170;SDS011;41060;47.510;8.680;2023-04-16T00:06:54;1.83;;;1.25;;
55170;SDS011;41060;47.510;8.680;2023-04-16T00:09:21;3.80;;;1.40;;
55170;SDS011;41060;47.510;8.680;2023-04-16T00:11:49;3.45;;;1.10;;
55170;SDS011;41060;47.510;8.680;2023-04-16T00:14:15;1.52;;;1.33;;
55170;SDS011;41060;47.510;8.680;2023-04-16T00:16:43;1.73;;;1.30;;
55170;SDS011;41060;47.510;8.680;2023-04-16T00:19:10;3.33;;;1.13;;
55170;SDS011;41060;47.510;8.680;2023-04-16T00:21:36;1.63;;;1.10;;
55170;SDS011;41060;47.510;8.680;2023-04-16T00:24:03;2.33;;;1.35;;
55170;SDS011;41060;47.510;8.680;2023-04-16T00:26:30;1.20;;;1.05;;
55170;SDS011;41060;47.510;8.680;2023-04-16T00:28:58;3.75;;;1.42;;
55170;SDS011;41060;47.510;8.680;2023-04-16T00:31:27;2.88;;;1.80;;
55170;SDS011;41060;47.510;8.680;2023-04-16T00:33:54;3.35;;;1.38;;
55170;SDS011;41060;47.510;8.680;2023-04-16T00:36:21;1.40;;;1.13;;
55170;SDS011;41060;47.510;8.680;2023-04-16T00:38:49;1.48;;;1.20;;
55170;SDS011;41060;47.510;8.680;2023-04-16T00:41:15;1.23;;;1.10;;
55170;SDS011;41060;47.510;8.680;2023-04-16T00:43:42;1.42;;;1.20;;
55170;SDS011;41060;47.510;8.680;2023-04-16T00:46:10;2.17;;;0.88;;
55170;SDS011;41060;47.510;8.680;2023-04-16T00:48:37;2.35;;;1.60;;
55170;SDS011;41060;47.510;8.680;2023-04-16T00:51:06;1.05;;;0.95;;
55170;SDS011;41060;47.510;8.680;2023-04-16T00:53:34;1.30;;;0.98;;
55170;SDS011;41060;47.510;8.680;2023-04-16T00:56:01;2.53;;;1.60;;
55170;SDS011;41060;47.510;8.680;2023-04-16T00:58:28;1.70;;;1.20;;
55170;SDS011;41060;47.510;8.680;2023-04-16T01:00:56;2.13;;;1.33;;
55170;SDS011;41060;47.510;8.680;2023-04-16T01:03:24;1.98;;;1.23;;
55170;SDS011;41060;47.510;8.680;2023-04-16T01:06:00;2.63;;;1.35;;
55170;SDS011;41060;47.510;8.680;2023-04-16T01:08:29;2.00;;;1.25;;
55170;SDS011;41060;47.510;8.680;2023-04-16T01:10:57;2.60;;;1.38;;
55170;SDS011;41060;47.510;8.680;2023-04-16T01:13:25;2.28;;;1.40;;
55170;SDS011;41060;47.510;8.680;2023-04-16T01:15:51;2.85;;;1.40;;
55170;SDS011;41060;47.510;8.680;2023-04-16T01:18:18;2.10;;;1.40;;
55170;SDS011;41060;47.510;8.680;2023-04-16T01:20:47;3.92;;;1.42;;
55170;SDS011;41060;47.510;8.680;2023-04-16T01:23:15;1.58;;;0.98;;
55170;SDS011;41060;47.510;8.680;2023-04-16T01:25:42;2.90;;;1.42;;
55170;SDS011;41060;47.510;8.680;2023-04-16T01:28:09;1.73;;;1.42;;
55170;SDS011;41060;47.510;8.680;2023-04-16T01:30:40;1.65;;;1.30;;
55170;SDS011;41060;47.510;8.680;2023-04-16T01:33:07;3.33;;;1.38;;
55170;SDS011;41060;47.510;8.680;2023-04-16T01:35:35;5.72;;;1.70;;
55170;SDS011;41060;47.510;8.680;2023-04-16T01:38:03;1.88;;;1.60;;
55170;SDS011;41060;47.510;8.680;2023-04-16T01:40:31;1.70;;;1.20;;
55170;SDS011;41060;47.510;8.680;2023-04-16T01:42:59;1.98;;;1.30;;
55170;SDS011;41060;47.510;8.680;2023-04-16T01:45:25;2.33;;;1.52;;
55170;SDS011;41060;47.510;8.680;2023-04-16T01:47:52;5.38;;;1.67;;
55170;SDS011;41060;47.510;8.680;2023-04-16T01:50:19;2.55;;;1.40;;
55170;SDS011;41060;47.510;8.680;2023-04-16T01:52:46;2.67;;;1.40;;
55170;SDS011;41060;47.510;8.680;2023-04-16T01:55:14;3.72;;;1.40;;
55170;SDS011;41060;47.510;8.680;2023-04-16T01:57:41;2.40;;;1.75;;
55170;SDS011;41060;47.510;8.680;2023-04-16T02:00:08;2.03;;;1.30;;
55170;SDS011;41060;47.510;8.680;2023-04-16T02:02:35;1.95;;;1.38;;
55170;SDS011;41060;47.510;8.680;2023-04-16T02:05:05;1.98;;;1.17;;
55170;SDS011;41060;47.510;8.680;2023-04-16T02:07:32;1.98;;;1.50;;
55170;SDS011;41060;47.510;8.680;2023-04-16T02:09:58;3.75;;;1.98;;
55170;SDS011;41060;47.510;8.680;2023-04-16T02:12:27;2.25;;;1.10;;
55170;SDS011;41060;47.510;8.680;2023-04-16T02:14:53;3.22;;;1.75;;
55170;SDS011;41060;47.510;8.680;2023-04-16T02:17:20;2.17;;;1.90;;
55170;SDS011;41060;47.510;8.680;2023-04-16T02:19:47;1.77;;;0.90;;
55170;SDS011;41060;47.510;8.680;2023-04-16T02:22:13;5.22;;;2.20;;
55170;SDS011;41060;47.510;8.680;2023-04-16T02:24:40;2.95;;;2.17;;
55170;SDS011;41060;47.510;8.680;2023-04-16T02:27:07;2.30;;;1.40;;
55170;SDS011;41060;47.510;8.680;2023-04-16T02:29:37;4.22;;;1.30;;
55170;SDS011;41060;47.510;8.680;2023-04-16T02:32:03;3.35;;;2.15;;
55170;SDS011;41060;47.510;8.680;2023-04-16T02:34:31;3.90;;;1.80;;
55170;SDS011;41060;47.510;8.680;2023-04-16T02:36:58;2.08;;;1.48;;
55170;SDS011;41060;47.510;8.680;2023-04-16T02:39:25;2.35;;;1.55;;
55170;SDS011;41060;47.510;8.680;2023-04-16T02:41:52;2.78;;;2.25;;
55170;SDS011;41060;47.510;8.680;2023-04-16T02:44:18;5.20;;;1.42;;
55170;SDS011;41060;47.510;8.680;2023-04-16T02:46:46;4.28;;;2.17;;
55170;SDS011;41060;47.510;8.680;2023-04-16T02:49:13;2.30;;;1.50;;
55170;SDS011;41060;47.510;8.680;2023-04-16T02:51:40;3.67;;;2.03;;
55170;SDS011;41060;47.510;8.680;2023-04-16T02:54:06;3.25;;;2.10;;
55170;SDS011;41060;47.510;8.680;2023-04-16T02:56:33;3.13;;;1.70;;
55170;SDS011;41060;47.510;8.680;2023-04-16T02:59:00;4.00;;;2.17;;
55170;SDS011;41060;47.510;8.680;2023-04-16T03:01:26;2.38;;;1.40;;
55170;SDS011;41060;47.510;8.680;2023-04-16T03:03:55;2.60;;;1.85;;
55170;SDS011;41060;47.510;8.680;2023-04-16T03:06:21;3.67;;;1.70;;
55170;SDS011;41060;47.510;8.680;2023-04-16T03:08:48;2.00;;;1.27;;
55170;SDS011;41060;47.510;8.680;2023-04-16T03:11:15;4.30;;;1.42;;
55170;SDS011;41060;47.510;8.680;2023-04-16T03:13:42;3.67;;;1.65;;
55170;SDS011;41060;47.510;8.680;2023-04-16T03:16:08;2.58;;;1.58;;
55170;SDS011;41060;47.510;8.680;2023-04-16T03:18:36;3.78;;;1.90;;
55170;SDS011;41060;47.510;8.680;2023-04-16T03:21:04;5.78;;;1.88;;
55170;SDS011;41060;47.510;8.680;2023-04-16T03:23:30;3.03;;;1.70;;
55170;SDS011;41060;47.510;8.680;2023-04-16T03:26:00;3.35;;;1.98;;
55170;SDS011;41060;47.510;8.680;2023-04-16T03:28:27;4.93;;;1.73;;
55170;SDS011;41060;47.510;8.680;2023-04-16T03:30:53;3.83;;;2.28;;
55170;SDS011;41060;47.510;8.680;2023-04-16T03:33:20;2.80;;;1.67;;
55170;SDS011;41060;47.510;8.680;2023-04-16T03:35:53;2.88;;;2.20;;
55170;SDS011;41060;47.510;8.680;2023-04-16T03:38:22;3.83;;;1.40;;
55170;SDS011;41060;47.510;8.680;2023-04-16T03:40:49;2.72;;;1.45;;
55170;SDS011;41060;47.510;8.680;2023-04-16T03:43:15;3.65;;;2.08;;
55170;SDS011;41060;47.510;8.680;2023-04-16T03:45:43;2.92;;;1.92;;
55170;SDS011;41060;47.510;8.680;2023-04-16T03:48:09;2.78;;;1.65;;
55170;SDS011;41060;47.510;8.680;2023-04-16T03:50:36;3.28;;;2.10;;
55170;SDS011;41060;47.510;8.680;2023-04-16T03:53:03;3.13;;;1.83;;
55170;SDS011;41060;47.510;8.680;2023-04-16T03:55:31;4.45;;;2.17;;
55170;SDS011;41060;47.510;8.680;2023-04-16T03:57:57;4.55;;;1.95;;
55170;SDS011;41060;47.510;8.680;2023-04-16T04:00:27;3.50;;;2.17;;
55170;SDS011;41060;47.510;8.680;2023-04-16T04:02:54;3.20;;;1.75;;
55170;SDS011;41060;47.510;8.680;2023-04-16T04:05:21;2.67;;;1.88;;
55170;SDS011;41060;47.510;8.680;2023-04-16T04:07:48;4.85;;;1.95;;
55170;SDS011;41060;47.510;8.680;2023-04-16T04:10:14;3.38;;;1.90;;
55170;SDS011;41060;47.510;8.680;2023-04-16T04:12:42;3.10;;;2.17;;
55170;SDS011;41060;47.510;8.680;2023-04-16T04:15:12;2.92;;;1.85;;
55170;SDS011;41060;47.510;8.680;2023-04-16T04:17:39;4.47;;;2.17;;
55170;SDS011;41060;47.510;8.680;2023-04-16T04:20:05;3.22;;;2.20;;
55170;SDS011;41060;47.510;8.680;2023-04-16T04:22:36;2.63;;;1.75;;
55170;SDS011;41060;47.510;8.680;2023-04-16T04:25:03;3.50;;;1.80;;
55170;SDS011;41060;47.510;8.680;2023-04-16T04:27:30;4.43;;;2.33;;
55170;SDS011;41060;47.510;8.680;2023-04-16T04:29:58;2.10;;;1.45;;
55170;SDS011;41060;47.510;8.680;2023-04-16T04:32:25;2.25;;;1.73;;
55170;SDS011;41060;47.510;8.680;2023-04-16T04:34:51;5.63;;;2.13;;
55170;SDS011;41060;47.510;8.680;2023-04-16T04:37:18;4.15;;;2.10;;
55170;SDS011;41060;47.510;8.680;2023-04-16T04:39:45;2.20;;;1.40;;
55170;SDS011;41060;47.510;8.680;2023-04-16T04:42:12;2.47;;;1.63;;
55170;SDS011;41060;47.510;8.680;2023-04-16T04:44:39;4.22;;;2.40;;
55170;SDS011;41060;47.510;8.680;2023-04-16T04:47:10;2.83;;;1.92;;
55170;SDS011;41060;47.510;8.680;2023-04-16T04:49:36;4.72;;;2.45;;
55170;SDS011;41060;47.510;8.680;2023-04-16T04:52:06;2.10;;;1.70;;
55170;SDS011;41060;47.510;8.680;2023-04-16T04:54:33;3.47;;;2.03;;
55170;SDS011;41060;47.510;8.680;2023-04-16T04:57:00;3.15;;;2.10;;
55170;SDS011;41060;47.510;8.680;2023-04-16T04:59:27;2.78;;;1.83;;
55170;SDS011;41060;47.510;8.680;2023-04-16T05:01:53;2.45;;;1.95;;
55170;SDS011;41060;47.510;8.680;2023-04-16T05:04:21;4.00;;;1.38;;
55170;SDS011;41060;47.510;8.680;2023-04-16T05:06:48;2.97;;;1.67;;
55170;SDS011;41060;47.510;8.680;2023-04-16T05:09:15;2.47;;;1.58;;
55170;SDS011;41060;47.510;8.680;2023-04-16T05:11:41;3.17;;;2.00;;
55170;SDS011;41060;47.510;8.680;2023-04-16T05:14:08;4.28;;;1.80;;
55170;SDS011;41060;47.510;8.680;2023-04-16T05:16:35;2.83;;;1.73;;
55170;SDS011;41060;47.510;8.680;2023-04-16T05:19:02;3.25;;;1.98;;
55170;SDS011;41060;47.510;8.680;2023-04-16T05:21:31;8.30;;;1.92;;
55170;SDS011;41060;47.510;8.680;2023-04-16T05:23:59;6.13;;;1.73;;
55170;SDS011;41060;47.510;8.680;2023-04-16T05:26:25;2.90;;;1.52;;
55170;SDS011;41060;47.510;8.680;2023-04-16T05:28:52;3.65;;;1.35;;
55170;SDS011;41060;47.510;8.680;2023-04-16T05:31:19;2.25;;;1.48;;
55170;SDS011;41060;47.510;8.680;2023-04-16T05:33:45;2.38;;;1.95;;
55170;SDS011;41060;47.510;8.680;2023-04-16T05:36:12;3.20;;;1.90;;
55170;SDS011;41060;47.510;8.680;2023-04-16T05:38:40;2.67;;;1.70;;
55170;SDS011;41060;47.510;8.680;2023-04-16T05:41:06;3.22;;;2.22;;
55170;SDS011;41060;47.510;8.680;2023-04-16T05:43:34;4.70;;;2.00;;
55170;SDS011;41060;47.510;8.680;2023-04-16T05:46:00;2.33;;;1.85;;
55170;SDS011;41060;47.510;8.680;2023-04-16T05:48:29;2.63;;;1.75;;
55170;SDS011;41060;47.510;8.680;2023-04-16T05:50:56;3.13;;;2.05;;
55170;SDS011;41060;47.510;8.680;2023-04-16T05:53:23;3.58;;;2.15;;
55170;SDS011;41060;47.510;8.680;2023-04-16T05:55:50;5.50;;;2.47;;
55170;SDS011;41060;47.510;8.680;2023-04-16T05:58:18;3.85;;;2.28;;
55170;SDS011;41060;47.510;8.680;2023-04-16T06:00:44;5.22;;;2.65;;
55170;SDS011;41060;47.510;8.680;2023-04-16T06:03:11;5.45;;;2.58;;
55170;SDS011;41060;47.510;8.680;2023-04-16T06:05:38;3.92;;;1.88;;
55170;SDS011;41060;47.510;8.680;2023-04-16T06:08:06;5.57;;;1.98;;
55170;SDS011;41060;47.510;8.680;2023-04-16T06:10:33;3.20;;;1.98;;
55170;SDS011;41060;47.510;8.680;2023-04-16T06:13:01;3.22;;;2.08;;
55170;SDS011;41060;47.510;8.680;2023-04-16T06:15:28;3.55;;;1.77;;
55170;SDS011;41060;47.510;8.680;2023-04-16T06:17:54;4.50;;;2.42;;
55170;SDS011;41060;47.510;8.680;2023-04-16T06:20:21;3.17;;;2.10;;
55170;SDS011;41060;47.510;8.680;2023-04-16T06:22:48;3.50;;;2.00;;
55170;SDS011;41060;47.510;8.680;2023-04-16T06:25:15;4.75;;;1.98;;
55170;SDS011;41060;47.510;8.680;2023-04-16T06:27:42;2.35;;;1.52;;
55170;SDS011;41060;47.510;8.680;2023-04-16T06:30:11;3.85;;;2.22;;
55170;SDS011;41060;47.510;8.680;2023-04-16T06:32:39;1.95;;;1.33;;
55170;SDS011;41060;47.510;8.680;2023-04-16T06:35:07;1.77;;;1.38;;
55170;SDS011;41060;47.510;8.680;2023-04-16T06:37:34;3.47;;;1.92;;
55170;SDS011;41060;47.510;8.680;2023-04-16T06:40:00;3.05;;;1.70;;
55170;SDS011;41060;47.510;8.680;2023-04-16T06:42:28;4.32;;;2.60;;
55170;SDS011;41060;47.510;8.680;2023-04-16T06:44:54;4.55;;;2.22;;
55170;SDS011;41060;47.510;8.680;2023-04-16T06:47:22;4.47;;;1.70;;
55170;SDS011;41060;47.510;8.680;2023-04-16T06:49:49;4.53;;;2.22;;
55170;SDS011;41060;47.510;8.680;2023-04-16T06:52:16;4.30;;;2.20;;
55170;SDS011;41060;47.510;8.680;2023-04-16T06:54:42;2.17;;;1.70;;
55170;SDS011;41060;47.510;8.680;2023-04-16T06:57:09;4.43;;;2.20;;
55170;SDS011;41060;47.510;8.680;2023-04-16T06:59:36;3.70;;;2.42;;
55170;SDS011;41060;47.510;8.680;2023-04-16T07:02:02;3.17;;;2.20;;
55170;SDS011;41060;47.510;8.680;2023-04-16T07:04:31;2.92;;;1.67;;
55170;SDS011;41060;47.510;8.680;2023-04-16T07:06:57;2.72;;;1.65;;
55170;SDS011;41060;47.510;8.680;2023-04-16T07:09:24;2.75;;;1.75;;
55170;SDS011;41060;47.510;8.680;2023-04-16T07:11:52;4.60;;;2.40;;
55170;SDS011;41060;47.510;8.680;2023-04-16T07:14:18;2.53;;;1.52;;
55170;SDS011;41060;47.510;8.680;2023-04-16T07:16:45;2.70;;;1.67;;
55170;SDS011;41060;47.510;8.680;2023-04-16T07:19:12;4.85;;;2.58;;
55170;SDS011;41060;47.510;8.680;2023-04-16T07:21:40;3.88;;;2.28;;
55170;SDS011;41060;47.510;8.680;2023-04-16T07:24:08;3.03;;;2.22;;
55170;SDS011;41060;47.510;8.680;2023-04-16T07:26:35;5.28;;;2.60;;
55170;SDS011;41060;47.510;8.680;2023-04-16T07:29:02;3.20;;;2.50;;
55170;SDS011;41060;47.510;8.680;2023-04-16T07:31:28;3.70;;;1.98;;
55170;SDS011;41060;47.510;8.680;2023-04-16T07:33:55;2.15;;;1.77;;
55170;SDS011;41060;47.510;8.680;2023-04-16T07:36:23;2.95;;;1.83;;
55170;SDS011;41060;47.510;8.680;2023-04-16T07:38:52;4.70;;;2.17;;
55170;SDS011;41060;47.510;8.680;2023-04-16T07:41:19;3.75;;;1.83;;
55170;SDS011;41060;47.510;8.680;2023-04-16T07:43:46;8.63;;;2.15;;
55170;SDS011;41060;47.510;8.680;2023-04-16T07:46:12;2.30;;;1.98;;
55170;SDS011;41060;47.510;8.680;2023-04-16T07:48:40;3.78;;;1.95;;
55170;SDS011;41060;47.510;8.680;2023-04-16T07:51:06;2.80;;;1.80;;
55170;SDS011;41060;47.510;8.680;2023-04-16T07:53:33;3.30;;;1.98;;
55170;SDS011;41060;47.510;8.680;2023-04-16T07:56:01;2.65;;;1.75;;
55170;SDS011;41060;47.510;8.680;2023-04-16T07:58:28;4.78;;;2.03;;
55170;SDS011;41060;47.510;8.680;2023-04-16T08:00:54;3.00;;;1.85;;
55170;SDS011;41060;47.510;8.680;2023-04-16T08:03:21;2.60;;;1.92;;
55170;SDS011;41060;47.510;8.680;2023-04-16T08:05:48;2.75;;;1.52;;
55170;SDS011;41060;47.510;8.680;2023-04-16T08:08:15;3.42;;;1.95;;
55170;SDS011;41060;47.510;8.680;2023-04-16T08:10:42;4.03;;;2.33;;
55170;SDS011;41060;47.510;8.680;2023-04-16T08:13:10;2.45;;;2.03;;
55170;SDS011;41060;47.510;8.680;2023-04-16T08:15:36;3.40;;;1.80;;
55170;SDS011;41060;47.510;8.680;2023-04-16T08:18:03;3.78;;;2.05;;
55170;SDS011;41060;47.510;8.680;2023-04-16T08:20:31;6.25;;;2.20;;
55170;SDS011;41060;47.510;8.680;2023-04-16T08:22:58;1.80;;;1.50;;
55170;SDS011;41060;47.510;8.680;2023-04-16T08:25:25;3.17;;;2.00;;
55170;SDS011;41060;47.510;8.680;2023-04-16T08:27:51;4.00;;;1.75;;
55170;SDS011;41060;47.510;8.680;2023-04-16T08:30:19;2.65;;;1.90;;
55170;SDS011;41060;47.510;8.680;2023-04-16T08:32:49;2.28;;;1.67;;
55170;SDS011;41060;47.510;8.680;2023-04-16T08:35:16;2.63;;;1.58;;
55170;SDS011;41060;47.510;8.680;2023-04-16T08:37:42;2.63;;;1.42;;
55170;SDS011;41060;47.510;8.680;2023-04-16T08:40:10;2.50;;;1.65;;
55170;SDS011;41060;47.510;8.680;2023-04-16T08:42:38;3.08;;;1.95;;
55170;SDS011;41060;47.510;8.680;2023-04-16T08:45:13;2.90;;;1.63;;
55170;SDS011;41060;47.510;8.680;2023-04-16T08:47:44;3.72;;;1.65;;
55170;SDS011;41060;47.510;8.680;2023-04-16T08:50:13;1.67;;;1.27;;
55170;SDS011;41060;47.510;8.680;2023-04-16T08:52:42;2.85;;;1.70;;
55170;SDS011;41060;47.510;8.680;2023-04-16T08:55:12;3.53;;;1.77;;
55170;SDS011;41060;47.510;8.680;2023-04-16T08:57:42;1.58;;;1.40;;
55170;SDS011;41060;47.510;8.680;2023-04-16T09:00:17;3.03;;;1.67;;
55170;SDS011;41060;47.510;8.680;2023-04-16T09:02:46;3.17;;;1.77;;
55170;SDS011;41060;47.510;8.680;2023-04-16T09:05:14;3.65;;;1.95;;
55170;SDS011;41060;47.510;8.680;2023-04-16T09:07:43;4.55;;;2.17;;
55170;SDS011;41060;47.510;8.680;2023-04-16T09:10:10;3.40;;;1.85;;
55170;SDS011;41060;47.510;8.680;2023-04-16T09:12:38;2.83;;;2.22;;
55170;SDS011;41060;47.510;8.680;2023-04-16T09:15:06;3.05;;;1.35;;
55170;SDS011;41060;47.510;8.680;2023-04-16T09:17:36;4.10;;;2.10;;
55170;SDS011;41060;47.510;8.680;2023-04-16T09:20:04;2.13;;;1.27;;
55170;SDS011;41060;47.510;8.680;2023-04-16T09:22:35;1.80;;;1.33;;
55170;SDS011;41060;47.510;8.680;2023-04-16T09:25:02;2.92;;;1.70;;
55170;SDS011;41060;47.510;8.680;2023-04-16T09:27:29;2.03;;;1.30;;
55170;SDS011;41060;47.510;8.680;2023-04-16T09:29:56;5.10;;;1.65;;
55170;SDS011;41060;47.510;8.680;2023-04-16T09:32:24;1.70;;;1.10;;
55170;SDS011;41060;47.510;8.680;2023-04-16T09:34:52;1.75;;;1.15;;
55170;SDS011;41060;47.510;8.680;2023-04-16T09:37:25;1.40;;;0.77;;
55170;SDS011;41060;47.510;8.680;2023-04-16T09:39:54;0.90;;;0.70;;
55170;SDS011;41060;47.510;8.680;2023-04-16T09:42:23;0.57;;;0.50;;
55170;SDS011;41060;47.510;8.680;2023-04-16T09:44:52;2.63;;;1.30;;
55170;SDS011;41060;47.510;8.680;2023-04-16T09:47:19;2.55;;;1.00;;
55170;SDS011;41060;47.510;8.680;2023-04-16T09:49:46;2.03;;;0.90;;
55170;SDS011;41060;47.510;8.680;2023-04-16T09:52:14;1.25;;;0.70;;
55170;SDS011;41060;47.510;8.680;2023-04-16T09:54:47;1.33;;;1.10;;
55170;SDS011;41060;47.510;8.680;2023-04-16T09:57:19;1.27;;;0.75;;
55170;SDS011;41060;47.510;8.680;2023-04-16T09:59:47;0.73;;;0.60;;
55170;SDS011;41060;47.510;8.680;2023-04-16T10:02:13;0.77;;;0.60;;
55170;SDS011;41060;47.510;8.680;2023-04-16T10:04:44;0.95;;;0.63;;
55170;SDS011;41060;47.510;8.680;2023-04-16T10:07:11;0.93;;;0.60;;
55170;SDS011;41060;47.510;8.680;2023-04-16T10:09:38;1.75;;;0.80;;
55170;SDS011;41060;47.510;8.680;2023-04-16T10:12:07;1.48;;;0.85;;
55170;SDS011;41060;47.510;8.680;2023-04-16T10:14:36;2.53;;;0.80;;
55170;SDS011;41060;47.510;8.680;2023-04-16T10:17:03;2.58;;;1.02;;
55170;SDS011;41060;47.510;8.680;2023-04-16T10:19:33;2.10;;;1.08;;
55170;SDS011;41060;47.510;8.680;2023-04-16T10:22:00;4.07;;;0.70;;
55170;SDS011;41060;47.510;8.680;2023-04-16T10:24:27;1.05;;;0.80;;
55170;SDS011;41060;47.510;8.680;2023-04-16T10:26:55;4.13;;;1.00;;
55170;SDS011;41060;47.510;8.680;2023-04-16T10:29:24;1.10;;;0.60;;
55170;SDS011;41060;47.510;8.680;2023-04-16T10:31:52;2.53;;;0.88;;
55170;SDS011;41060;47.510;8.680;2023-04-16T10:34:23;1.20;;;0.50;;
55170;SDS011;41060;47.510;8.680;2023-04-16T10:36:51;0.55;;;0.45;;
55170;SDS011;41060;47.510;8.680;2023-04-16T10:39:19;0.85;;;0.65;;
55170;SDS011;41060;47.510;8.680;2023-04-16T10:41:47;2.40;;;0.68;;
55170;SDS011;41060;47.510;8.680;2023-04-16T10:44:17;0.38;;;0.32;;
55170;SDS011;41060;47.510;8.680;2023-04-16T10:46:46;0.50;;;0.43;;
55170;SDS011;41060;47.510;8.680;2023-04-16T10:49:15;0.47;;;0.40;;
55170;SDS011;41060;47.510;8.680;2023-04-16T10:51:51;1.05;;;0.70;;
55170;SDS011;41060;47.510;8.680;2023-04-16T10:54:21;1.10;;;0.85;;
55170;SDS011;41060;47.510;8.680;2023-04-16T10:56:51;0.60;;;0.50;;
55170;SDS011;41060;47.510;8.680;2023-04-16T10:59:20;1.02;;;0.68;;
55170;SDS011;41060;47.510;8.680;2023-04-16T11:01:50;0.50;;;0.47;;
55170;SDS011;41060;47.510;8.680;2023-04-16T11:04:27;1.02;;;0.68;;
55170;SDS011;41060;47.510;8.680;2023-04-16T11:07:00;1.23;;;0.63;;
55170;SDS011;41060;47.510;8.680;2023-04-16T11:12:21;0.90;;;0.68;;
55170;SDS011;41060;47.510;8.680;2023-04-16T11:14:51;3.05;;;1.25;;
55170;SDS011;41060;47.510;8.680;2023-04-16T11:17:20;1.58;;;0.70;;
55170;SDS011;41060;47.510;8.680;2023-04-16T11:19:47;0.57;;;0.40;;
55170;SDS011;41060;47.510;8.680;2023-04-16T11:22:15;1.05;;;0.60;;
55170;SDS011;41060;47.510;8.680;2023-04-16T11:24:42;1.48;;;0.70;;
55170;SDS011;41060;47.510;8.680;2023-04-16T11:27:11;1.60;;;0.80;;
55170;SDS011;41060;47.510;8.680;2023-04-16T11:29:38;1.08;;;0.70;;
55170;SDS011;41060;47.510;8.680;2023-04-16T11:32:05;1.10;;;0.80;;
55170;SDS011;41060;47.510;8.680;2023-04-16T11:34:34;1.85;;;1.15;;
55170;SDS011;41060;47.510;8.680;2023-04-16T11:37:08;1.90;;;0.90;;
55170;SDS011;41060;47.510;8.680;2023-04-16T11:39:46;1.10;;;0.80;;
55170;SDS011;41060;47.510;8.680;2023-04-16T11:42:17;1.52;;;0.85;;
55170;SDS011;41060;47.510;8.680;2023-04-16T11:44:45;2.30;;;1.23;;
55170;SDS011;41060;47.510;8.680;2023-04-16T11:47:16;1.15;;;0.80;;
55170;SDS011;41060;47.510;8.680;2023-04-16T11:49:44;2.53;;;0.80;;
55170;SDS011;41060;47.510;8.680;2023-04-16T11:52:11;1.85;;;1.10;;
55170;SDS011;41060;47.510;8.680;2023-04-16T11:54:37;1.02;;;0.90;;
55170;SDS011;41060;47.510;8.680;2023-04-16T11:57:04;1.75;;;1.15;;
55170;SDS011;41060;47.510;8.680;2023-04-16T11:59:31;1.38;;;1.20;;
55170;SDS011;41060;47.510;8.680;2023-04-16T12:01:58;1.73;;;1.10;;
55170;SDS011;41060;47.510;8.680;2023-04-16T12:04:25;1.40;;;1.08;;
55170;SDS011;41060;47.510;8.680;2023-04-16T12:07:04;3.38;;;1.23;;
55170;SDS011;41060;47.510;8.680;2023-04-16T12:09:32;2.70;;;1.35;;
55170;SDS011;41060;47.510;8.680;2023-04-16T12:12:00;2.58;;;1.63;;
55170;SDS011;41060;47.510;8.680;2023-04-16T12:14:29;1.70;;;1.23;;
55170;SDS011;41060;47.510;8.680;2023-04-16T12:19:50;1.58;;;1.45;;
55170;SDS011;41060;47.510;8.680;2023-04-16T12:22:18;2.33;;;1.15;;
55170;SDS011;41060;47.510;8.680;2023-04-16T12:24:54;2.00;;;1.20;;
55170;SDS011;41060;47.510;8.680;2023-04-16T12:27:22;2.55;;;1.65;;
55170;SDS011;41060;47.510;8.680;2023-04-16T12:30:03;2.60;;;1.50;;
55170;SDS011;41060;47.510;8.680;2023-04-16T12:32:30;2.55;;;1.30;;
55170;SDS011;41060;47.510;8.680;2023-04-16T12:34:57;3.28;;;1.85;;
55170;SDS011;41060;47.510;8.680;2023-04-16T12:37:25;1.23;;;1.00;;
55170;SDS011;41060;47.510;8.680;2023-04-16T12:39:52;2.00;;;1.20;;
55170;SDS011;41060;47.510;8.680;2023-04-16T12:42:19;1.92;;;1.48;;
55170;SDS011;41060;47.510;8.680;2023-04-16T12:44:45;1.55;;;1.17;;
55170;SDS011;41060;47.510;8.680;2023-04-16T12:47:12;1.48;;;1.00;;
55170;SDS011;41060;47.510;8.680;2023-04-16T12:49:39;2.72;;;1.52;;
55170;SDS011;41060;47.510;8.680;2023-04-16T12:52:06;1.95;;;1.33;;
55170;SDS011;41060;47.510;8.680;2023-04-16T12:54:33;3.67;;;1.42;;
55170;SDS011;41060;47.510;8.680;2023-04-16T12:57:01;3.35;;;1.83;;
55170;SDS011;41060;47.510;8.680;2023-04-16T12:59:27;1.65;;;1.30;;
55170;SDS011;41060;47.510;8.680;2023-04-16T13:01:54;2.45;;;1.40;;
55170;SDS011;41060;47.510;8.680;2023-04-16T13:04:21;2.63;;;1.60;;
55170;SDS011;41060;47.510;8.680;2023-04-16T13:06:47;2.72;;;1.70;;
55170;SDS011;41060;47.510;8.680;2023-04-16T13:09:14;2.08;;;1.23;;
55170;SDS011;41060;47.510;8.680;2023-04-16T13:11:42;7.50;;;1.88;;
55170;SDS011;41060;47.510;8.680;2023-04-16T13:14:09;3.60;;;1.98;;
55170;SDS011;41060;47.510;8.680;2023-04-16T13:16:35;4.88;;;1.83;;
55170;SDS011;41060;47.510;8.680;2023-04-16T13:19:03;3.75;;;1.58;;
55170;SDS011;41060;47.510;8.680;2023-04-16T13:21:29;3.42;;;2.67;;
55170;SDS011;41060;47.510;8.680;2023-04-16T13:23:56;3.05;;;1.52;;
55170;SDS011;41060;47.510;8.680;2023-04-16T13:26:23;2.50;;;1.55;;
55170;SDS011;41060;47.510;8.680;2023-04-16T13:28:51;3.42;;;1.88;;
55170;SDS011;41060;47.510;8.680;2023-04-16T13:31:18;2.72;;;2.03;;
55170;SDS011;41060;47.510;8.680;2023-04-16T13:33:46;2.95;;;1.77;;
55170;SDS011;41060;47.510;8.680;2023-04-16T13:36:13;2.80;;;1.77;;
55170;SDS011;41060;47.510;8.680;2023-04-16T13:38:39;3.20;;;1.80;;
55170;SDS011;41060;47.510;8.680;2023-04-16T13:41:06;2.60;;;1.40;;
55170;SDS011;41060;47.510;8.680;2023-04-16T13:43:33;2.88;;;1.48;;
55170;SDS011;41060;47.510;8.680;2023-04-16T13:46:03;5.15;;;2.33;;
55170;SDS011;41060;47.510;8.680;2023-04-16T13:48:30;1.92;;;1.02;;
55170;SDS011;41060;47.510;8.680;2023-04-16T13:50:56;1.85;;;1.20;;
55170;SDS011;41060;47.510;8.680;2023-04-16T13:53:23;3.13;;;1.13;;
55170;SDS011;41060;47.510;8.680;2023-04-16T13:55:50;2.05;;;1.25;;
55170;SDS011;41060;47.510;8.680;2023-04-16T13:58:17;2.60;;;1.58;;
55170;SDS011;41060;47.510;8.680;2023-04-16T14:00:43;1.75;;;1.23;;
55170;SDS011;41060;47.510;8.680;2023-04-16T14:03:12;3.60;;;1.15;;
55170;SDS011;41060;47.510;8.680;2023-04-16T14:05:40;2.30;;;1.20;;
55170;SDS011;41060;47.510;8.680;2023-04-16T14:08:07;2.25;;;1.42;;
55170;SDS011;41060;47.510;8.680;2023-04-16T14:10:34;1.55;;;1.25;;
55170;SDS011;41060;47.510;8.680;2023-04-16T14:13:01;1.13;;;0.88;;
55170;SDS011;41060;47.510;8.680;2023-04-16T14:15:27;0.88;;;0.82;;
55170;SDS011;41060;47.510;8.680;2023-04-16T14:17:55;2.42;;;1.48;;
55170;SDS011;41060;47.510;8.680;2023-04-16T14:20:22;2.50;;;1.58;;
55170;SDS011;41060;47.510;8.680;2023-04-16T14:22:49;3.65;;;1.85;;
55170;SDS011;41060;47.510;8.680;2023-04-16T14:25:16;2.08;;;1.33;;
55170;SDS011;41060;47.510;8.680;2023-04-16T14:27:43;5.75;;;1.10;;
55170;SDS011;41060;47.510;8.680;2023-04-16T14:30:12;1.60;;;1.02;;
55170;SDS011;41060;47.510;8.680;2023-04-16T14:32:39;1.40;;;0.93;;
55170;SDS011;41060;47.510;8.680;2023-04-16T14:35:06;2.90;;;1.73;;
55170;SDS011;41060;47.510;8.680;2023-04-16T14:37:35;1.48;;;1.33;;
55170;SDS011;41060;47.510;8.680;2023-04-16T14:40:04;2.05;;;1.30;;
55170;SDS011;41060;47.510;8.680;2023-04-16T14:42:32;2.00;;;0.88;;
55170;SDS011;41060;47.510;8.680;2023-04-16T14:45:00;2.97;;;1.38;;
55170;SDS011;41060;47.510;8.680;2023-04-16T14:47:27;3.42;;;1.38;;
55170;SDS011;41060;47.510;8.680;2023-04-16T14:49:57;2.28;;;1.30;;
55170;SDS011;41060;47.510;8.680;2023-04-16T14:52:23;1.95;;;1.23;;
55170;SDS011;41060;47.510;8.680;2023-04-16T14:54:52;1.45;;;1.25;;
55170;SDS011;41060;47.510;8.680;2023-04-16T14:57:19;1.83;;;1.25;;